createdAt,value
2018-05-21T00:02:00.579Z,3.47
2018-05-21T00:04:30.698Z,3.37
2018-05-21T00:06:59.052Z,3.80
2018-05-21T00:09:28.198Z,3.93
2018-05-21T00:11:57.371Z,3.97
2018-05-21T00:14:25.715Z,3.87
2018-05-21T00:16:54.064Z,4.00
2018-05-21T00:19:23.226Z,4.00
2018-05-21T00:21:51.582Z,3.87
2018-05-21T00:24:19.875Z,3.80
2018-05-21T00:26:48.631Z,3.93
2018-05-21T00:29:16.942Z,3.90
2018-05-21T00:31:46.074Z,3.93
2018-05-21T00:34:15.301Z,3.90
2018-05-21T00:36:43.626Z,3.50
2018-05-21T00:39:11.934Z,3.70
2018-05-21T00:41:41.335Z,3.83
2018-05-21T00:44:10.939Z,4.00
2018-05-21T00:46:39.265Z,3.63
2018-05-21T00:49:07.626Z,3.70
2018-05-21T00:51:36.275Z,3.60
2018-05-21T00:54:04.638Z,3.93
2018-05-21T00:56:33.970Z,3.23
2018-05-21T00:59:02.378Z,3.40
2018-05-21T01:01:31.140Z,3.73
2018-05-21T01:04:00.022Z,3.93
2018-05-21T01:06:28.349Z,3.47
2018-05-21T01:08:57.638Z,3.53
2018-05-21T01:11:26.027Z,3.73
2018-05-21T01:13:54.333Z,3.37
2018-05-21T01:16:22.674Z,3.80
2018-05-21T01:18:51.725Z,3.60
2018-05-21T01:21:20.078Z,3.80
2018-05-21T01:23:48.436Z,3.40
2018-05-21T01:26:17.607Z,3.63
2018-05-21T01:28:46.756Z,3.60
2018-05-21T01:31:15.101Z,3.23
2018-05-21T01:33:43.397Z,3.50
2018-05-21T01:36:11.811Z,3.53
2018-05-21T01:38:40.870Z,3.03
2018-05-21T01:41:09.258Z,3.83
2018-05-21T01:43:37.610Z,3.33
2018-05-21T01:46:06.883Z,3.33
2018-05-21T01:48:35.187Z,4.10
2018-05-21T01:51:05.090Z,3.30
2018-05-21T01:53:34.314Z,3.60
2018-05-21T01:56:03.566Z,3.37
2018-05-21T01:58:32.686Z,3.60
2018-05-21T02:01:01.011Z,3.40
2018-05-21T02:03:29.756Z,3.57
2018-05-21T02:05:58.282Z,3.33
2018-05-21T02:08:27.040Z,3.33
2018-05-21T02:10:56.583Z,3.23
2018-05-21T02:13:25.000Z,2.90
2018-05-21T02:15:54.135Z,3.43
2018-05-21T02:18:22.862Z,3.33
2018-05-21T02:20:51.246Z,3.23
2018-05-21T02:23:20.211Z,3.47
2018-05-21T02:25:48.549Z,3.30
2018-05-21T02:28:16.906Z,3.00
2018-05-21T02:30:46.861Z,3.07
2018-05-21T02:33:15.721Z,3.27
2018-05-21T02:35:44.022Z,2.70
2018-05-21T02:38:12.591Z,3.07
2018-05-21T02:40:41.707Z,3.40
2018-05-21T02:43:10.991Z,3.47
2018-05-21T02:45:39.304Z,3.10
2018-05-21T02:48:07.725Z,2.90
2018-05-21T02:50:36.031Z,3.37
2018-05-21T02:53:04.660Z,3.27
2018-05-21T02:55:34.463Z,3.10
2018-05-21T02:58:03.180Z,3.17
2018-05-21T03:00:32.420Z,3.20
2018-05-21T03:03:00.807Z,2.90
2018-05-21T03:05:29.112Z,3.13
2018-05-21T03:07:58.687Z,3.23
2018-05-21T03:10:40.919Z,2.70
2018-05-21T03:13:09.287Z,2.73
2018-05-21T03:15:37.598Z,3.50
2018-05-21T03:18:05.931Z,2.67
2018-05-21T03:20:34.231Z,2.90
2018-05-21T03:23:02.579Z,3.10
2018-05-21T03:25:31.638Z,2.87
2018-05-21T03:28:00.111Z,3.20
2018-05-21T03:30:30.103Z,3.23
2018-05-21T03:32:59.375Z,3.23
2018-05-21T03:35:28.195Z,3.00
2018-05-21T03:37:57.422Z,2.90
2018-05-21T03:40:26.595Z,3.00
2018-05-21T03:42:56.039Z,2.93
2018-05-21T03:45:25.150Z,3.13
2018-05-21T03:47:53.499Z,3.07
2018-05-21T03:50:21.854Z,2.80
2018-05-21T03:52:50.799Z,3.00
2018-05-21T03:55:22.715Z,2.70
2018-05-21T03:57:51.160Z,2.83
2018-05-21T04:00:32.277Z,3.10
2018-05-21T04:03:10.252Z,3.20
2018-05-21T04:05:40.016Z,2.97
2018-05-21T04:08:08.402Z,3.00
2018-05-21T04:10:37.601Z,2.97
2018-05-21T04:13:06.176Z,3.20
2018-05-21T04:15:34.954Z,3.07
2018-05-21T04:18:03.658Z,2.67
2018-05-21T04:20:32.019Z,2.63
2018-05-21T04:23:00.867Z,3.00
2018-05-21T04:25:29.941Z,2.97
2018-05-21T04:27:58.258Z,2.97
2018-05-21T04:30:26.558Z,2.80
2018-05-21T04:32:55.172Z,2.77
2018-05-21T04:35:24.378Z,2.90
2018-05-21T04:38:05.642Z,2.80
2018-05-21T04:40:34.031Z,2.87
2018-05-21T04:43:03.565Z,2.70
2018-05-21T04:45:31.855Z,2.80
2018-05-21T04:48:00.206Z,2.73
2018-05-21T04:50:29.099Z,2.70
2018-05-21T04:52:57.419Z,2.90
2018-05-21T04:55:26.658Z,2.53
2018-05-21T04:57:55.001Z,2.87
2018-05-21T05:00:24.682Z,3.17
2018-05-21T05:02:53.838Z,2.50
2018-05-21T05:05:22.195Z,2.80
2018-05-21T05:07:51.519Z,2.67
2018-05-21T05:10:20.710Z,2.43
2018-05-21T05:12:52.675Z,2.80
2018-05-21T05:15:21.006Z,2.70
2018-05-21T05:17:49.382Z,2.77
2018-05-21T05:20:17.926Z,2.87
2018-05-21T05:22:46.266Z,2.30
2018-05-21T05:25:15.526Z,2.87
2018-05-21T05:27:43.827Z,2.73
2018-05-21T05:30:12.399Z,2.93
2018-05-21T05:32:41.624Z,2.70
2018-05-21T05:35:16.946Z,3.00
2018-05-21T05:37:45.251Z,3.03
2018-05-21T05:40:14.454Z,2.80
2018-05-21T05:42:43.039Z,2.80
2018-05-21T05:45:12.297Z,2.80
2018-05-21T05:47:41.141Z,2.70
2018-05-21T05:50:10.290Z,2.83
2018-05-21T05:52:38.590Z,2.50
2018-05-21T05:55:06.919Z,3.00
2018-05-21T05:57:35.725Z,2.60
2018-05-21T06:00:04.904Z,2.57
2018-05-21T06:02:34.899Z,2.80
2018-05-21T06:05:03.729Z,2.50
2018-05-21T06:07:32.759Z,3.00
2018-05-21T06:10:01.102Z,2.23
2018-05-21T06:12:29.787Z,2.50
2018-05-21T06:14:58.919Z,2.53
2018-05-21T06:17:28.143Z,2.40
2018-05-21T06:19:56.482Z,2.83
2018-05-21T06:22:25.586Z,2.53
2018-05-21T06:24:53.970Z,2.67
2018-05-21T06:27:22.595Z,2.50
2018-05-21T06:29:52.747Z,2.30
2018-05-21T06:32:21.119Z,2.33
2018-05-21T06:34:51.003Z,2.70
2018-05-21T06:37:19.309Z,2.50
2018-05-21T06:39:47.800Z,2.43
2018-05-21T06:42:17.391Z,2.53
2018-05-21T06:44:46.535Z,2.90
2018-05-21T06:47:15.575Z,2.23
2018-05-21T06:49:44.685Z,2.53
2018-05-21T06:52:19.957Z,2.87
2018-05-21T06:54:49.694Z,2.50
2018-05-21T06:57:18.046Z,3.20
2018-05-21T06:59:46.383Z,2.80
2018-05-21T07:02:15.414Z,2.63
2018-05-21T07:04:44.207Z,2.87
2018-05-21T07:07:14.159Z,2.43
2018-05-21T07:09:42.779Z,2.60
2018-05-21T07:12:18.734Z,2.73
2018-05-21T07:14:47.123Z,2.77
2018-05-21T07:17:17.107Z,2.83
2018-05-21T07:19:45.435Z,2.70
2018-05-21T07:22:14.574Z,2.57
2018-05-21T07:24:44.439Z,2.40
2018-05-21T07:27:12.963Z,2.40
2018-05-21T07:29:41.861Z,2.53
2018-05-21T07:32:10.173Z,2.40
2018-05-21T07:34:38.993Z,2.60
2018-05-21T07:37:07.803Z,2.40
2018-05-21T07:39:37.775Z,2.10
2018-05-21T07:42:06.139Z,2.53
2018-05-21T07:44:34.447Z,2.53
2018-05-21T07:47:03.613Z,2.30
2018-05-21T07:49:31.962Z,2.37
2018-05-21T07:52:00.295Z,2.60
2018-05-21T07:54:29.559Z,2.27
2018-05-21T07:56:57.887Z,2.37
2018-05-21T07:59:26.992Z,2.80
2018-05-21T08:01:57.627Z,2.80
2018-05-21T08:04:26.018Z,2.67
2018-05-21T08:06:54.818Z,2.80
2018-05-21T08:09:23.857Z,3.50
2018-05-21T08:11:52.204Z,3.20
2018-05-21T08:14:20.509Z,3.50
2018-05-21T08:16:49.188Z,3.60
2018-05-21T08:19:18.312Z,3.70
2018-05-21T08:21:46.755Z,3.40
2018-05-21T08:24:15.459Z,3.00
2018-05-21T08:26:43.792Z,3.10
2018-05-21T08:29:12.867Z,3.20
2018-05-21T08:31:41.967Z,3.77
2018-05-21T08:34:11.091Z,3.07
2018-05-21T08:36:40.119Z,3.40
2018-05-21T08:39:08.495Z,3.17
2018-05-21T08:41:37.671Z,2.77
2018-05-21T08:44:06.259Z,3.67
2018-05-21T08:46:35.519Z,2.73
2018-05-21T08:49:03.831Z,3.53
2018-05-21T08:51:32.292Z,2.93
2018-05-21T08:54:04.818Z,3.17
2018-05-21T08:56:33.999Z,2.93
2018-05-21T08:59:03.607Z,3.20
2018-05-21T09:01:33.711Z,3.10
2018-05-21T09:04:02.116Z,2.47
2018-05-21T09:06:30.567Z,2.87
2018-05-21T09:08:59.806Z,3.07
2018-05-21T09:11:28.479Z,3.13
2018-05-21T09:13:57.324Z,3.07
2018-05-21T09:16:27.473Z,3.10
2018-05-21T09:18:56.638Z,2.90
2018-05-21T09:21:24.967Z,2.77
2018-05-21T09:23:54.787Z,2.90
2018-05-21T09:26:23.179Z,2.67
2018-05-21T09:28:51.482Z,2.97
2018-05-21T09:31:19.820Z,2.90
2018-05-21T09:33:48.119Z,2.70
2018-05-21T09:36:17.379Z,2.63
2018-05-21T09:38:48.297Z,2.50
2018-05-21T09:41:16.632Z,2.67
2018-05-21T09:43:45.022Z,2.50
2018-05-21T09:46:14.985Z,2.40
2018-05-21T09:48:43.432Z,3.10
2018-05-21T09:51:12.534Z,2.70
2018-05-21T09:53:40.939Z,2.40
2018-05-21T09:56:09.309Z,2.57
2018-05-21T09:58:37.750Z,2.30
2018-05-21T10:01:06.131Z,2.90
2018-05-21T10:03:34.471Z,2.90
2018-05-21T10:06:03.710Z,3.13
2018-05-21T10:08:32.039Z,3.07
2018-05-21T10:11:01.797Z,3.50
2018-05-21T10:13:30.118Z,3.97
2018-05-21T10:16:07.739Z,3.50
2018-05-21T10:18:38.620Z,3.70
2018-05-21T10:21:07.037Z,3.33
2018-05-21T10:23:35.459Z,3.50
2018-05-21T10:26:05.532Z,3.37
2018-05-21T10:28:33.859Z,3.67
2018-05-21T10:31:03.103Z,3.40
2018-05-21T10:33:32.275Z,3.10
2018-05-21T10:36:00.718Z,3.37
2018-05-21T10:38:29.869Z,3.77
2018-05-21T10:40:58.647Z,3.50
2018-05-21T10:43:27.740Z,3.40
2018-05-21T10:45:56.927Z,3.17
2018-05-21T10:48:26.711Z,3.27
2018-05-21T10:50:55.360Z,2.90
2018-05-21T10:53:24.463Z,3.00
2018-05-21T10:55:52.919Z,3.10
2018-05-21T10:58:34.465Z,2.73
2018-05-21T11:01:04.319Z,2.60
2018-05-21T11:03:32.633Z,3.00
2018-05-21T11:06:02.566Z,2.60
2018-05-21T11:08:38.788Z,2.90
2018-05-21T11:11:07.094Z,2.93
2018-05-21T11:13:35.699Z,2.83
2018-05-21T11:16:04.958Z,2.73
2018-05-21T11:18:33.430Z,2.67
2018-05-21T11:21:01.793Z,3.13
2018-05-21T11:23:31.512Z,2.87
2018-05-21T11:26:00.311Z,2.83
2018-05-21T11:28:30.793Z,2.93
2018-05-21T11:30:59.093Z,3.17
2018-05-21T11:33:27.850Z,2.73
2018-05-21T11:35:56.391Z,2.50
2018-05-21T11:38:26.647Z,3.60
2018-05-21T11:40:55.092Z,2.80
2018-05-21T11:43:24.262Z,2.87
2018-05-21T11:45:53.386Z,2.53
2018-05-21T11:48:27.911Z,2.80
2018-05-21T11:50:57.139Z,2.73
2018-05-21T11:53:26.454Z,2.60
2018-05-21T11:55:56.259Z,2.70
2018-05-21T11:58:24.674Z,2.73
2018-05-21T12:00:59.536Z,2.50
2018-05-21T12:03:27.960Z,3.00
2018-05-21T12:05:57.711Z,2.50
2018-05-21T12:08:26.055Z,2.63
2018-05-21T12:10:55.511Z,2.60
2018-05-21T12:13:24.839Z,2.63
2018-05-21T12:15:54.069Z,2.47
2018-05-21T12:18:22.442Z,2.47
2018-05-21T12:20:51.715Z,2.70
2018-05-21T12:23:21.022Z,2.50
2018-05-21T12:25:50.172Z,2.80
2018-05-21T12:28:19.829Z,2.57
2018-05-21T12:30:49.655Z,2.90
2018-05-21T12:33:18.858Z,2.60
2018-05-21T12:35:47.238Z,2.13
2018-05-21T12:38:17.100Z,2.30
2018-05-21T12:40:46.234Z,2.90
2018-05-21T12:43:15.296Z,2.40
2018-05-21T12:45:44.400Z,2.67
2018-05-21T12:48:13.514Z,2.37
2018-05-21T12:50:41.799Z,2.67
2018-05-21T12:53:10.743Z,2.63
2018-05-21T12:55:39.966Z,2.77
2018-05-21T12:58:08.770Z,2.63
2018-05-21T13:00:38.055Z,2.43
2018-05-21T13:03:07.262Z,2.87
2018-05-21T13:05:36.088Z,2.30
2018-05-21T13:08:04.647Z,2.57
2018-05-21T13:10:34.630Z,2.40
2018-05-21T13:13:03.022Z,2.87
2018-05-21T13:15:32.939Z,3.20
2018-05-21T13:18:01.295Z,2.83
2018-05-21T13:20:32.956Z,2.60
2018-05-21T13:23:01.790Z,2.63
2018-05-21T13:25:30.596Z,2.33
2018-05-21T13:28:01.095Z,2.43
2018-05-21T13:30:29.482Z,2.57
2018-05-21T13:32:58.153Z,2.70
2018-05-21T13:35:27.322Z,2.60
2018-05-21T13:37:55.634Z,2.60
2018-05-21T13:40:24.748Z,2.97
2018-05-21T13:42:53.819Z,3.03
2018-05-21T13:45:22.191Z,2.30
2018-05-21T13:47:52.350Z,2.50
2018-05-21T13:50:21.811Z,2.20
2018-05-21T13:52:50.209Z,2.10
2018-05-21T13:55:18.834Z,2.53
2018-05-21T13:57:47.148Z,2.47
2018-05-21T14:00:15.467Z,2.50
2018-05-21T14:02:44.623Z,2.53
2018-05-21T14:05:14.919Z,2.50
2018-05-21T14:07:43.943Z,2.23
2018-05-21T14:10:12.258Z,2.53
2018-05-21T14:12:41.444Z,2.60
2018-05-21T14:15:09.826Z,2.53
2018-05-21T14:17:39.712Z,2.40
2018-05-21T14:20:08.031Z,2.47
2018-05-21T14:22:39.226Z,2.57
2018-05-21T14:25:07.680Z,2.50
2018-05-21T14:27:37.090Z,2.80
2018-05-21T14:30:05.472Z,2.57
2018-05-21T14:32:35.462Z,2.30
2018-05-21T14:35:04.955Z,2.40
2018-05-21T14:37:34.229Z,2.53
2018-05-21T14:40:03.500Z,2.00
2018-05-21T14:42:31.807Z,2.23
2018-05-21T14:45:01.227Z,2.43
2018-05-21T14:47:29.575Z,2.30
2018-05-21T14:49:58.190Z,2.07
2018-05-21T14:52:26.580Z,2.50
2018-05-21T14:54:55.023Z,2.27
2018-05-21T14:57:23.268Z,2.17
2018-05-21T14:59:52.483Z,3.00
2018-05-21T15:02:20.990Z,3.03
2018-05-21T15:04:49.433Z,2.53
2018-05-21T15:07:18.675Z,2.83
2018-05-21T15:09:47.832Z,2.40
2018-05-21T15:12:16.891Z,2.43
2018-05-21T15:14:45.183Z,2.60
2018-05-21T15:17:14.500Z,2.60
2018-05-21T15:19:58.498Z,2.20
2018-05-21T15:22:27.765Z,2.20
2018-05-21T15:24:57.122Z,2.47
2018-05-21T15:27:26.423Z,2.33
2018-05-21T15:29:54.774Z,2.20
2018-05-21T15:32:24.799Z,2.80
2018-05-21T15:34:53.098Z,2.23
2018-05-21T15:37:22.490Z,2.43
2018-05-21T15:39:52.823Z,2.47
2018-05-21T15:42:21.687Z,2.40
2018-05-21T15:44:50.048Z,2.40
2018-05-21T15:47:19.079Z,2.00
2018-05-21T15:49:47.456Z,2.47
2018-05-21T15:52:24.160Z,2.20
2018-05-21T15:54:53.354Z,2.73
2018-05-21T15:57:21.727Z,2.47
2018-05-21T15:59:50.171Z,2.20
2018-05-21T16:02:19.059Z,2.40
2018-05-21T16:04:47.355Z,2.20
2018-05-21T16:07:17.075Z,2.03
2018-05-21T16:09:45.426Z,2.57
2018-05-21T16:12:14.793Z,2.10
2018-05-21T16:14:44.012Z,2.30
2018-05-21T16:17:12.326Z,2.50
2018-05-21T16:19:41.834Z,2.40
2018-05-21T16:22:10.374Z,2.20
2018-05-21T16:24:38.722Z,2.53
2018-05-21T16:27:07.047Z,2.30
2018-05-21T16:29:35.634Z,2.30
2018-05-21T16:32:04.802Z,2.30
2018-05-21T16:34:44.195Z,2.20
2018-05-21T16:37:13.454Z,2.47
2018-05-21T16:39:42.032Z,2.43
2018-05-21T16:42:11.833Z,2.50
2018-05-21T16:44:50.840Z,2.93
2018-05-21T16:47:20.091Z,2.63
2018-05-21T16:49:48.389Z,2.30
2018-05-21T16:52:17.947Z,2.47
2018-05-21T16:57:21.142Z,2.30
2018-05-21T16:59:49.941Z,2.60
2018-05-21T17:02:19.126Z,2.00
2018-05-21T17:04:47.840Z,2.20
2018-05-21T17:07:18.200Z,2.40
2018-05-21T17:09:46.493Z,2.57
2018-05-21T17:12:15.595Z,2.27
2018-05-21T17:14:45.902Z,2.20
2018-05-21T17:17:14.816Z,2.20
2018-05-21T17:19:43.119Z,2.10
2018-05-21T17:22:15.680Z,2.27
2018-05-21T17:24:45.904Z,2.20
2018-05-21T17:27:14.416Z,2.30
2018-05-21T17:29:43.134Z,2.40
2018-05-21T17:32:11.976Z,2.33
2018-05-21T17:34:40.797Z,2.00
2018-05-21T17:37:09.819Z,2.30
2018-05-21T17:39:40.070Z,2.40
2018-05-21T17:42:08.498Z,2.20
2018-05-21T17:44:36.942Z,2.63
2018-05-21T17:47:05.307Z,2.30
2018-05-21T17:49:34.646Z,2.33
2018-05-21T17:52:03.244Z,2.20
2018-05-21T17:54:32.315Z,2.10
2018-05-21T17:57:00.742Z,2.30
2018-05-21T17:59:29.115Z,2.07
2018-05-21T18:01:58.287Z,2.40
2018-05-21T18:04:26.627Z,2.33
2018-05-21T18:06:56.515Z,3.87
2018-05-21T18:09:25.715Z,3.10
2018-05-21T18:11:54.130Z,3.17
2018-05-21T18:14:22.502Z,2.60
2018-05-21T18:16:50.803Z,2.83
2018-05-21T18:19:19.147Z,3.27
2018-05-21T18:21:48.096Z,3.30
2018-05-21T18:24:16.491Z,3.03
2018-05-21T18:26:45.742Z,2.50
2018-05-21T18:29:14.128Z,3.23
2018-05-21T18:31:43.753Z,3.07
2018-05-21T18:34:12.099Z,2.40
2018-05-21T18:36:40.551Z,3.00
2018-05-21T18:39:09.670Z,2.77
2018-05-21T18:41:45.636Z,2.40
2018-05-21T18:44:14.081Z,2.30
2018-05-21T18:46:42.366Z,2.60
2018-05-21T18:49:10.800Z,2.33
2018-05-21T18:51:39.351Z,2.93
2018-05-21T18:54:07.907Z,2.70
2018-05-21T18:56:36.288Z,2.53
2018-05-21T18:59:04.733Z,2.40
2018-05-21T19:01:33.034Z,2.63
2018-05-21T19:04:01.461Z,2.13
2018-05-21T19:06:30.231Z,2.77
2018-05-21T19:08:58.563Z,2.13
2018-05-21T19:11:27.103Z,2.10
2018-05-21T19:13:57.010Z,2.43
2018-05-21T19:16:25.535Z,2.17
2018-05-21T19:18:53.947Z,2.10
2018-05-21T19:21:23.299Z,2.53
2018-05-21T19:23:51.635Z,2.20
2018-05-21T19:26:19.935Z,2.27
2018-05-21T19:28:48.370Z,2.53
2018-05-21T19:31:17.486Z,2.30
2018-05-21T19:33:46.559Z,2.67
2018-05-21T19:36:15.562Z,2.40
2018-05-21T19:38:43.946Z,3.00
2018-05-21T19:41:13.146Z,2.73
2018-05-21T19:43:41.483Z,2.23
2018-05-21T19:46:10.526Z,2.40
2018-05-21T19:48:38.878Z,2.40
2018-05-21T19:51:07.798Z,2.50
2018-05-21T19:53:36.638Z,2.23
2018-05-21T19:56:05.106Z,2.60
2018-05-21T19:58:34.349Z,2.20
2018-05-21T20:01:03.446Z,2.47
2018-05-21T20:03:32.210Z,2.43
2018-05-21T20:06:00.646Z,2.63
2018-05-21T20:08:29.058Z,2.47
2018-05-21T20:10:57.523Z,2.40
2018-05-21T20:13:26.411Z,2.67
2018-05-21T20:16:02.022Z,2.70
2018-05-21T20:18:33.597Z,2.50
2018-05-21T20:21:01.934Z,2.27
2018-05-21T20:23:30.233Z,2.20
2018-05-21T20:26:07.207Z,2.77
2018-05-21T20:28:37.247Z,2.73
2018-05-21T20:31:05.566Z,2.57
2018-05-21T20:33:35.521Z,2.60
2018-05-21T20:36:04.791Z,2.80
2018-05-21T20:38:34.491Z,2.70
2018-05-21T20:41:03.828Z,3.90
2018-05-21T20:43:33.323Z,3.53
2018-05-21T20:46:02.679Z,2.50
2018-05-21T20:48:31.110Z,3.00
2018-05-21T20:50:59.498Z,3.20
2018-05-21T20:53:28.441Z,2.47
2018-05-21T20:55:56.883Z,2.90
2018-05-21T20:58:31.106Z,2.97
2018-05-21T21:00:59.427Z,3.03
2018-05-21T21:03:27.730Z,3.30
2018-05-21T21:05:56.059Z,2.87
2018-05-21T21:08:25.438Z,3.33
2018-05-21T21:10:55.323Z,2.97
2018-05-21T21:13:23.625Z,2.90
2018-05-21T21:15:52.583Z,2.80
2018-05-21T21:18:21.458Z,3.07
2018-05-21T21:20:50.215Z,2.90
2018-05-21T21:23:18.696Z,2.83
2018-05-21T21:25:48.895Z,2.93
2018-05-21T21:28:18.924Z,3.10
2018-05-21T21:30:49.007Z,2.83
2018-05-21T21:33:18.066Z,3.10
2018-05-21T21:35:46.395Z,3.40
2018-05-21T21:38:14.788Z,3.10
2018-05-21T21:40:44.103Z,2.77
2018-05-21T21:43:12.844Z,3.00
2018-05-21T21:45:42.140Z,3.00
2018-05-21T21:48:10.436Z,2.90
2018-05-21T21:50:38.770Z,3.43
2018-05-21T21:53:09.671Z,3.20
2018-05-21T21:55:38.870Z,3.47
2018-05-21T21:58:07.202Z,2.93
2018-05-21T22:00:36.350Z,3.20
2018-05-21T22:03:05.221Z,3.10
2018-05-21T22:05:33.896Z,3.30
2018-05-21T22:08:02.563Z,2.77
2018-05-21T22:10:31.889Z,3.13
2018-05-21T22:13:01.091Z,2.70
2018-05-21T22:15:29.523Z,2.93
2018-05-21T22:18:00.116Z,2.60
2018-05-21T22:20:30.938Z,2.77
2018-05-21T22:22:59.254Z,3.20
2018-05-21T22:25:28.631Z,3.00
2018-05-21T22:27:57.027Z,3.17
2018-05-21T22:30:26.411Z,2.50
2018-05-21T22:33:05.631Z,2.73
2018-05-21T22:35:34.198Z,2.80
2018-05-21T22:38:02.926Z,2.80
2018-05-21T22:40:31.450Z,2.33
2018-05-21T22:43:06.217Z,2.53
2018-05-21T22:45:36.122Z,2.30
2018-05-21T22:48:04.459Z,2.60
2018-05-21T22:50:32.807Z,2.57
2018-05-21T22:53:01.166Z,2.47
2018-05-21T22:55:31.306Z,2.80
2018-05-21T22:58:00.219Z,2.47
2018-05-21T23:00:29.005Z,2.43
2018-05-21T23:02:57.391Z,2.40
2018-05-21T23:05:26.619Z,2.40
2018-05-21T23:07:55.251Z,2.43
2018-05-21T23:10:24.458Z,2.57
2018-05-21T23:12:52.778Z,2.77
2018-05-21T23:15:22.007Z,2.20
2018-05-21T23:17:51.681Z,2.57
2018-05-21T23:20:20.041Z,2.60
2018-05-21T23:22:48.413Z,2.30
2018-05-21T23:25:17.645Z,2.27
2018-05-21T23:27:46.039Z,1.87
2018-05-21T23:30:15.215Z,2.00
2018-05-21T23:32:44.454Z,2.10
2018-05-21T23:35:13.509Z,2.00
2018-05-21T23:37:41.830Z,1.97
2018-05-21T23:40:10.170Z,1.93
2018-05-21T23:42:39.564Z,2.20
2018-05-21T23:45:08.805Z,2.07
2018-05-21T23:47:37.207Z,2.37
2018-05-21T23:50:05.514Z,2.20
2018-05-21T23:52:33.890Z,2.20
2018-05-21T23:55:12.298Z,2.00
2018-05-21T23:57:40.682Z,1.90
